sensor_id;sensor_type;location;lat;lon;timestamp;temperature;humidity
10788;DHT22;5446;50.826;4.380;2022-07-05T00:01:47;17.20;99.90
10788;DHT22;5446;50.826;4.380;2022-07-05T00:04:12;17.10;99.90
10788;DHT22;5446;50.826;4.380;2022-07-05T00:06:38;17.20;99.90
10788;DHT22;5446;50.826;4.380;2022-07-05T00:09:24;17.10;99.90
10788;DHT22;5446;50.826;4.380;2022-07-05T00:11:50;17.10;99.90
10788;DHT22;5446;50.826;4.380;2022-07-05T00:14:15;17.00;99.90
10788;DHT22;5446;50.826;4.380;2022-07-05T00:16:41;17.00;99.90
10788;DHT22;5446;50.826;4.380;2022-07-05T00:19:07;17.00;99.90
10788;DHT22;5446;50.826;4.380;2022-07-05T00:21:32;17.00;99.90
10788;DHT22;5446;50.826;4.380;2022-07-05T00:23:58;17.00;99.90
10788;DHT22;5446;50.826;4.380;2022-07-05T00:26:24;16.90;99.90
10788;DHT22;5446;50.826;4.380;2022-07-05T00:28:49;16.90;99.90
10788;DHT22;5446;50.826;4.380;2022-07-05T00:31:15;16.80;99.90
10788;DHT22;5446;50.826;4.380;2022-07-05T00:33:40;16.80;99.90
10788;DHT22;5446;50.826;4.380;2022-07-05T00:36:06;16.80;99.90
10788;DHT22;5446;50.826;4.380;2022-07-05T00:38:32;16.80;99.90
10788;DHT22;5446;50.826;4.380;2022-07-05T00:40:58;16.80;99.90
10788;DHT22;5446;50.826;4.380;2022-07-05T00:43:24;16.80;99.90
10788;DHT22;5446;50.826;4.380;2022-07-05T00:45:49;16.70;99.90
10788;DHT22;5446;50.826;4.380;2022-07-05T00:48:15;16.70;99.90
10788;DHT22;5446;50.826;4.380;2022-07-05T00:50:41;16.70;99.90
10788;DHT22;5446;50.826;4.380;2022-07-05T00:53:08;16.70;99.90
10788;DHT22;5446;50.826;4.380;2022-07-05T00:55:34;16.70;99.90
10788;DHT22;5446;50.826;4.380;2022-07-05T00:58:00;16.70;99.90
10788;DHT22;5446;50.826;4.380;2022-07-05T01:00:26;16.70;99.90
10788;DHT22;5446;50.826;4.380;2022-07-05T01:02:52;16.70;99.90
10788;DHT22;5446;50.826;4.380;2022-07-05T01:05:17;16.70;99.90
10788;DHT22;5446;50.826;4.380;2022-07-05T01:07:44;16.60;99.90
10788;DHT22;5446;50.826;4.380;2022-07-05T01:10:10;16.60;99.90
10788;DHT22;5446;50.826;4.380;2022-07-05T01:12:40;16.70;99.90
10788;DHT22;5446;50.826;4.380;2022-07-05T01:15:07;16.60;99.90
10788;DHT22;5446;50.826;4.380;2022-07-05T01:17:36;16.60;99.90
10788;DHT22;5446;50.826;4.380;2022-07-05T01:20:05;16.60;99.90
10788;DHT22;5446;50.826;4.380;2022-07-05T01:22:56;16.60;99.90
10788;DHT22;5446;50.826;4.380;2022-07-05T01:25:26;16.60;99.90
10788;DHT22;5446;50.826;4.380;2022-07-05T01:27:53;16.50;99.90
10788;DHT22;5446;50.826;4.380;2022-07-05T01:30:20;16.60;99.90
10788;DHT22;5446;50.826;4.380;2022-07-05T01:32:46;16.60;99.90
10788;DHT22;5446;50.826;4.380;2022-07-05T01:35:13;16.70;99.90
10788;DHT22;5446;50.826;4.380;2022-07-05T01:37:39;16.60;99.90
10788;DHT22;5446;50.826;4.380;2022-07-05T01:40:06;16.50;99.90
10788;DHT22;5446;50.826;4.380;2022-07-05T01:42:32;16.40;99.90
10788;DHT22;5446;50.826;4.380;2022-07-05T01:44:58;16.40;99.90
10788;DHT22;5446;50.826;4.380;2022-07-05T01:47:24;16.40;99.90
10788;DHT22;5446;50.826;4.380;2022-07-05T01:49:53;16.40;99.90
10788;DHT22;5446;50.826;4.380;2022-07-05T01:52:24;16.30;99.90
10788;DHT22;5446;50.826;4.380;2022-07-05T01:54:52;16.30;99.90
10788;DHT22;5446;50.826;4.380;2022-07-05T01:57:18;16.30;99.90
10788;DHT22;5446;50.826;4.380;2022-07-05T01:59:44;16.30;99.90
10788;DHT22;5446;50.826;4.380;2022-07-05T02:02:09;16.30;99.90
10788;DHT22;5446;50.826;4.380;2022-07-05T02:04:36;16.20;99.90
10788;DHT22;5446;50.826;4.380;2022-07-05T02:07:06;16.10;99.90
10788;DHT22;5446;50.826;4.380;2022-07-05T02:09:32;16.10;99.90
10788;DHT22;5446;50.826;4.380;2022-07-05T02:11:58;16.10;99.90
10788;DHT22;5446;50.826;4.380;2022-07-05T02:14:24;16.00;99.90
10788;DHT22;5446;50.826;4.380;2022-07-05T02:16:49;15.90;99.90
10788;DHT22;5446;50.826;4.380;2022-07-05T02:19:15;15.90;99.90
10788;DHT22;5446;50.826;4.380;2022-07-05T02:21:41;15.90;99.90
10788;DHT22;5446;50.826;4.380;2022-07-05T02:24:07;15.80;99.90
10788;DHT22;5446;50.826;4.380;2022-07-05T02:26:33;15.80;99.90
10788;DHT22;5446;50.826;4.380;2022-07-05T02:28:59;15.70;99.90
10788;DHT22;5446;50.826;4.380;2022-07-05T02:31:25;15.70;99.90
10788;DHT22;5446;50.826;4.380;2022-07-05T02:33:51;15.70;99.90
10788;DHT22;5446;50.826;4.380;2022-07-05T02:36:17;15.60;99.90
10788;DHT22;5446;50.826;4.380;2022-07-05T02:38:43;15.60;99.90
10788;DHT22;5446;50.826;4.380;2022-07-05T02:41:10;15.50;99.90
10788;DHT22;5446;50.826;4.380;2022-07-05T02:43:37;15.50;99.90
10788;DHT22;5446;50.826;4.380;2022-07-05T02:46:04;15.50;99.90
10788;DHT22;5446;50.826;4.380;2022-07-05T02:48:30;15.40;99.90
10788;DHT22;5446;50.826;4.380;2022-07-05T02:50:56;15.40;99.90
10788;DHT22;5446;50.826;4.380;2022-07-05T02:53:22;15.40;99.90
10788;DHT22;5446;50.826;4.380;2022-07-05T02:55:48;15.40;99.90
10788;DHT22;5446;50.826;4.380;2022-07-05T02:58:14;15.40;99.90
10788;DHT22;5446;50.826;4.380;2022-07-05T03:00:39;15.40;99.90
10788;DHT22;5446;50.826;4.380;2022-07-05T03:03:05;15.40;99.90
10788;DHT22;5446;50.826;4.380;2022-07-05T03:05:31;15.30;99.90
10788;DHT22;5446;50.826;4.380;2022-07-05T03:07:57;15.30;99.90
10788;DHT22;5446;50.826;4.380;2022-07-05T03:10:23;15.20;99.90
10788;DHT22;5446;50.826;4.380;2022-07-05T03:12:48;15.20;99.90
10788;DHT22;5446;50.826;4.380;2022-07-05T03:15:14;15.20;99.90
10788;DHT22;5446;50.826;4.380;2022-07-05T03:17:40;15.20;99.90
10788;DHT22;5446;50.826;4.380;2022-07-05T03:20:06;15.20;99.90
10788;DHT22;5446;50.826;4.380;2022-07-05T03:22:31;15.20;99.90
10788;DHT22;5446;50.826;4.380;2022-07-05T03:24:57;15.20;99.90
10788;DHT22;5446;50.826;4.380;2022-07-05T03:27:23;15.20;99.90
10788;DHT22;5446;50.826;4.380;2022-07-05T03:29:48;15.10;99.90
10788;DHT22;5446;50.826;4.380;2022-07-05T03:32:14;15.10;99.90
10788;DHT22;5446;50.826;4.380;2022-07-05T03:34:40;15.10;99.90
10788;DHT22;5446;50.826;4.380;2022-07-05T03:37:05;15.10;99.90
10788;DHT22;5446;50.826;4.380;2022-07-05T03:39:31;15.10;99.90
10788;DHT22;5446;50.826;4.380;2022-07-05T03:41:57;15.00;99.90
10788;DHT22;5446;50.826;4.380;2022-07-05T03:44:22;15.00;99.90
10788;DHT22;5446;50.826;4.380;2022-07-05T03:46:48;15.00;99.90
10788;DHT22;5446;50.826;4.380;2022-07-05T03:49:14;15.00;99.90
10788;DHT22;5446;50.826;4.380;2022-07-05T03:51:39;15.00;99.90
10788;DHT22;5446;50.826;4.380;2022-07-05T03:54:05;15.00;99.90
10788;DHT22;5446;50.826;4.380;2022-07-05T03:56:31;14.90;99.90
10788;DHT22;5446;50.826;4.380;2022-07-05T03:58:56;14.90;99.90
10788;DHT22;5446;50.826;4.380;2022-07-05T04:01:22;14.90;99.90
10788;DHT22;5446;50.826;4.380;2022-07-05T04:03:48;14.90;99.90
10788;DHT22;5446;50.826;4.380;2022-07-05T04:06:14;14.90;99.90
10788;DHT22;5446;50.826;4.380;2022-07-05T04:08:39;14.90;99.90
10788;DHT22;5446;50.826;4.380;2022-07-05T04:11:05;14.90;99.90
10788;DHT22;5446;50.826;4.380;2022-07-05T04:13:31;14.90;99.90
10788;DHT22;5446;50.826;4.380;2022-07-05T04:15:57;14.80;99.90
10788;DHT22;5446;50.826;4.380;2022-07-05T04:18:23;15.00;99.90
10788;DHT22;5446;50.826;4.380;2022-07-05T04:20:48;14.90;99.90
10788;DHT22;5446;50.826;4.380;2022-07-05T04:23:14;14.90;99.90
10788;DHT22;5446;50.826;4.380;2022-07-05T04:25:40;15.00;99.90
10788;DHT22;5446;50.826;4.380;2022-07-05T04:28:06;15.00;99.90
10788;DHT22;5446;50.826;4.380;2022-07-05T04:30:32;14.90;99.90
10788;DHT22;5446;50.826;4.380;2022-07-05T04:33:17;14.90;99.90
10788;DHT22;5446;50.826;4.380;2022-07-05T04:35:43;15.00;99.90
10788;DHT22;5446;50.826;4.380;2022-07-05T04:38:09;15.00;99.90
10788;DHT22;5446;50.826;4.380;2022-07-05T04:40:35;15.10;99.90
10788;DHT22;5446;50.826;4.380;2022-07-05T04:43:01;15.10;99.90
10788;DHT22;5446;50.826;4.380;2022-07-05T04:45:26;15.10;99.90
10788;DHT22;5446;50.826;4.380;2022-07-05T04:47:52;15.10;99.90
10788;DHT22;5446;50.826;4.380;2022-07-05T04:50:18;15.20;99.90
10788;DHT22;5446;50.826;4.380;2022-07-05T04:52:43;15.20;99.90
10788;DHT22;5446;50.826;4.380;2022-07-05T04:55:09;15.20;99.90
10788;DHT22;5446;50.826;4.380;2022-07-05T04:57:41;15.20;99.90
10788;DHT22;5446;50.826;4.380;2022-07-05T05:00:12;15.20;99.90
10788;DHT22;5446;50.826;4.380;2022-07-05T05:02:39;15.20;99.90
10788;DHT22;5446;50.826;4.380;2022-07-05T05:05:05;15.20;99.90
10788;DHT22;5446;50.826;4.380;2022-07-05T05:07:31;15.20;99.90
10788;DHT22;5446;50.826;4.380;2022-07-05T05:09:58;15.20;99.90
10788;DHT22;5446;50.826;4.380;2022-07-05T05:12:24;15.30;99.90
10788;DHT22;5446;50.826;4.380;2022-07-05T05:14:50;15.30;99.90
10788;DHT22;5446;50.826;4.380;2022-07-05T05:17:16;15.30;99.90
10788;DHT22;5446;50.826;4.380;2022-07-05T05:19:42;15.30;99.90
10788;DHT22;5446;50.826;4.380;2022-07-05T05:22:10;15.30;99.90
10788;DHT22;5446;50.826;4.380;2022-07-05T05:24:35;15.40;99.90
10788;DHT22;5446;50.826;4.380;2022-07-05T05:27:02;15.40;99.90
10788;DHT22;5446;50.826;4.380;2022-07-05T05:29:27;15.40;99.90
10788;DHT22;5446;50.826;4.380;2022-07-05T05:31:53;15.50;99.90
10788;DHT22;5446;50.826;4.380;2022-07-05T05:34:20;15.50;99.90
10788;DHT22;5446;50.826;4.380;2022-07-05T05:36:45;15.60;99.90
10788;DHT22;5446;50.826;4.380;2022-07-05T05:39:12;15.60;99.90
10788;DHT22;5446;50.826;4.380;2022-07-05T05:41:38;15.60;99.90
10788;DHT22;5446;50.826;4.380;2022-07-05T05:44:04;15.70;99.90
10788;DHT22;5446;50.826;4.380;2022-07-05T05:46:30;15.70;99.90
10788;DHT22;5446;50.826;4.380;2022-07-05T05:48:55;15.70;99.90
10788;DHT22;5446;50.826;4.380;2022-07-05T05:51:21;15.60;99.90
10788;DHT22;5446;50.826;4.380;2022-07-05T05:53:47;15.70;99.90
10788;DHT22;5446;50.826;4.380;2022-07-05T05:56:13;15.80;99.90
10788;DHT22;5446;50.826;4.380;2022-07-05T05:58:38;15.80;99.90
10788;DHT22;5446;50.826;4.380;2022-07-05T06:01:04;15.90;99.90
10788;DHT22;5446;50.826;4.380;2022-07-05T06:03:30;16.00;99.90
10788;DHT22;5446;50.826;4.380;2022-07-05T06:05:56;16.00;99.90
10788;DHT22;5446;50.826;4.380;2022-07-05T06:08:22;16.10;99.90
10788;DHT22;5446;50.826;4.380;2022-07-05T06:10:48;16.20;99.90
10788;DHT22;5446;50.826;4.380;2022-07-05T06:13:14;16.30;99.90
10788;DHT22;5446;50.826;4.380;2022-07-05T06:15:41;16.30;99.90
10788;DHT22;5446;50.826;4.380;2022-07-05T06:18:09;16.40;99.90
10788;DHT22;5446;50.826;4.380;2022-07-05T06:20:37;16.40;99.90
10788;DHT22;5446;50.826;4.380;2022-07-05T06:23:04;16.50;99.90
10788;DHT22;5446;50.826;4.380;2022-07-05T06:25:31;16.50;99.90
10788;DHT22;5446;50.826;4.380;2022-07-05T06:28:05;16.50;99.90
10788;DHT22;5446;50.826;4.380;2022-07-05T06:30:32;16.50;99.90
10788;DHT22;5446;50.826;4.380;2022-07-05T06:32:58;16.50;99.90
10788;DHT22;5446;50.826;4.380;2022-07-05T06:35:24;16.60;99.90
10788;DHT22;5446;50.826;4.380;2022-07-05T06:38:01;16.70;99.90
10788;DHT22;5446;50.826;4.380;2022-07-05T06:40:38;16.70;99.90
10788;DHT22;5446;50.826;4.380;2022-07-05T06:43:08;16.80;99.90
10788;DHT22;5446;50.826;4.380;2022-07-05T06:45:34;16.80;99.90
10788;DHT22;5446;50.826;4.380;2022-07-05T06:48:08;16.80;99.90
10788;DHT22;5446;50.826;4.380;2022-07-05T06:50:40;16.90;99.90
10788;DHT22;5446;50.826;4.380;2022-07-05T06:53:06;16.90;99.90
10788;DHT22;5446;50.826;4.380;2022-07-05T06:55:32;16.80;99.90
10788;DHT22;5446;50.826;4.380;2022-07-05T07:00:25;16.80;99.90
10788;DHT22;5446;50.826;4.380;2022-07-05T07:02:50;16.60;99.90
10788;DHT22;5446;50.826;4.380;2022-07-05T07:05:16;16.80;99.90
10788;DHT22;5446;50.826;4.380;2022-07-05T07:07:42;16.80;99.90
10788;DHT22;5446;50.826;4.380;2022-07-05T07:10:26;16.80;99.90
10788;DHT22;5446;50.826;4.380;2022-07-05T07:12:52;16.70;99.90
10788;DHT22;5446;50.826;4.380;2022-07-05T07:15:18;16.80;99.90
10788;DHT22;5446;50.826;4.380;2022-07-05T07:17:44;16.90;99.90
10788;DHT22;5446;50.826;4.380;2022-07-05T07:20:09;17.00;99.90
10788;DHT22;5446;50.826;4.380;2022-07-05T07:22:35;17.00;99.90
10788;DHT22;5446;50.826;4.380;2022-07-05T07:25:01;17.00;99.90
10788;DHT22;5446;50.826;4.380;2022-07-05T07:27:27;17.00;99.90
10788;DHT22;5446;50.826;4.380;2022-07-05T07:29:52;17.00;99.90
10788;DHT22;5446;50.826;4.380;2022-07-05T07:32:18;17.20;99.90
10788;DHT22;5446;50.826;4.380;2022-07-05T07:34:44;17.20;99.90
10788;DHT22;5446;50.826;4.380;2022-07-05T07:37:10;17.30;99.90
10788;DHT22;5446;50.826;4.380;2022-07-05T07:39:39;17.30;99.90
10788;DHT22;5446;50.826;4.380;2022-07-05T07:42:06;17.30;99.90
10788;DHT22;5446;50.826;4.380;2022-07-05T07:44:32;17.50;99.90
10788;DHT22;5446;50.826;4.380;2022-07-05T07:46:58;17.70;99.90
10788;DHT22;5446;50.826;4.380;2022-07-05T07:49:23;17.80;99.90
10788;DHT22;5446;50.826;4.380;2022-07-05T07:51:50;17.80;99.90
10788;DHT22;5446;50.826;4.380;2022-07-05T07:54:17;18.00;99.90
10788;DHT22;5446;50.826;4.380;2022-07-05T07:56:42;18.40;99.90
10788;DHT22;5446;50.826;4.380;2022-07-05T07:59:09;18.70;99.90
10788;DHT22;5446;50.826;4.380;2022-07-05T08:01:35;18.90;99.90
10788;DHT22;5446;50.826;4.380;2022-07-05T08:04:00;19.10;99.90
10788;DHT22;5446;50.826;4.380;2022-07-05T08:06:26;19.20;99.90
10788;DHT22;5446;50.826;4.380;2022-07-05T08:08:52;19.30;99.90
10788;DHT22;5446;50.826;4.380;2022-07-05T08:11:17;19.40;99.90
10788;DHT22;5446;50.826;4.380;2022-07-05T08:13:43;19.40;99.90
10788;DHT22;5446;50.826;4.380;2022-07-05T08:16:09;19.40;99.90
10788;DHT22;5446;50.826;4.380;2022-07-05T08:18:36;19.50;99.90
10788;DHT22;5446;50.826;4.380;2022-07-05T08:21:20;19.70;99.90
10788;DHT22;5446;50.826;4.380;2022-07-05T08:24:02;19.60;99.90
10788;DHT22;5446;50.826;4.380;2022-07-05T08:26:28;19.50;99.90
10788;DHT22;5446;50.826;4.380;2022-07-05T08:28:55;19.60;99.90
10788;DHT22;5446;50.826;4.380;2022-07-05T08:31:24;19.70;99.90
10788;DHT22;5446;50.826;4.380;2022-07-05T08:33:50;19.70;99.90
10788;DHT22;5446;50.826;4.380;2022-07-05T08:36:16;19.70;99.90
10788;DHT22;5446;50.826;4.380;2022-07-05T08:38:42;19.90;99.90
10788;DHT22;5446;50.826;4.380;2022-07-05T08:41:09;19.80;99.90
10788;DHT22;5446;50.826;4.380;2022-07-05T08:43:38;19.80;99.90
10788;DHT22;5446;50.826;4.380;2022-07-05T08:46:05;19.70;99.90
10788;DHT22;5446;50.826;4.380;2022-07-05T08:48:36;19.60;99.90
10788;DHT22;5446;50.826;4.380;2022-07-05T08:51:12;19.50;99.90
10788;DHT22;5446;50.826;4.380;2022-07-05T08:53:39;19.50;99.90
10788;DHT22;5446;50.826;4.380;2022-07-05T08:56:07;19.50;99.90
10788;DHT22;5446;50.826;4.380;2022-07-05T08:58:34;19.60;99.90
10788;DHT22;5446;50.826;4.380;2022-07-05T09:01:01;19.40;99.90
10788;DHT22;5446;50.826;4.380;2022-07-05T09:03:38;19.40;99.90
10788;DHT22;5446;50.826;4.380;2022-07-05T09:06:11;19.50;99.90
10788;DHT22;5446;50.826;4.380;2022-07-05T09:08:39;19.50;99.90
10788;DHT22;5446;50.826;4.380;2022-07-05T09:11:12;19.70;99.90
10788;DHT22;5446;50.826;4.380;2022-07-05T09:13:40;19.60;99.90
10788;DHT22;5446;50.826;4.380;2022-07-05T09:16:07;19.70;99.90
10788;DHT22;5446;50.826;4.380;2022-07-05T09:23:43;19.90;99.90
10788;DHT22;5446;50.826;4.380;2022-07-05T09:26:09;19.90;99.90
10788;DHT22;5446;50.826;4.380;2022-07-05T09:28:35;19.90;99.90
10788;DHT22;5446;50.826;4.380;2022-07-05T09:31:00;19.90;99.90
10788;DHT22;5446;50.826;4.380;2022-07-05T09:33:26;19.80;99.90
10788;DHT22;5446;50.826;4.380;2022-07-05T09:35:56;19.70;99.90
10788;DHT22;5446;50.826;4.380;2022-07-05T09:38:23;19.90;99.90
10788;DHT22;5446;50.826;4.380;2022-07-05T09:40:57;20.10;99.90
10788;DHT22;5446;50.826;4.380;2022-07-05T09:43:28;20.20;99.90
10788;DHT22;5446;50.826;4.380;2022-07-05T09:48:21;20.50;99.90
10788;DHT22;5446;50.826;4.380;2022-07-05T09:50:49;20.50;99.90
10788;DHT22;5446;50.826;4.380;2022-07-05T09:53:15;20.40;99.90
10788;DHT22;5446;50.826;4.380;2022-07-05T09:55:41;20.30;99.90
10788;DHT22;5446;50.826;4.380;2022-07-05T09:58:07;20.40;99.90
10788;DHT22;5446;50.826;4.380;2022-07-05T10:00:33;20.60;99.90
10788;DHT22;5446;50.826;4.380;2022-07-05T10:02:59;21.00;99.90
10788;DHT22;5446;50.826;4.380;2022-07-05T10:05:31;21.30;99.90
10788;DHT22;5446;50.826;4.380;2022-07-05T10:07:59;21.40;99.90
10788;DHT22;5446;50.826;4.380;2022-07-05T10:10:27;21.30;99.90
10788;DHT22;5446;50.826;4.380;2022-07-05T10:12:58;21.20;99.90
10788;DHT22;5446;50.826;4.380;2022-07-05T10:15:26;21.40;99.90
10788;DHT22;5446;50.826;4.380;2022-07-05T10:17:53;21.50;99.90
10788;DHT22;5446;50.826;4.380;2022-07-05T10:21:02;21.40;99.90
10788;DHT22;5446;50.826;4.380;2022-07-05T10:23:16;21.50;99.90
10788;DHT22;5446;50.826;4.380;2022-07-05T10:25:47;21.90;99.90
10788;DHT22;5446;50.826;4.380;2022-07-05T10:28:16;21.80;99.90
10788;DHT22;5446;50.826;4.380;2022-07-05T10:30:45;21.80;99.90
10788;DHT22;5446;50.826;4.380;2022-07-05T10:33:18;22.10;99.90
10788;DHT22;5446;50.826;4.380;2022-07-05T10:35:46;22.20;99.90
10788;DHT22;5446;50.826;4.380;2022-07-05T10:38:13;22.20;99.90
10788;DHT22;5446;50.826;4.380;2022-07-05T10:40:45;22.20;99.90
10788;DHT22;5446;50.826;4.380;2022-07-05T10:43:13;22.00;99.90
10788;DHT22;5446;50.826;4.380;2022-07-05T10:45:40;21.80;99.90
10788;DHT22;5446;50.826;4.380;2022-07-05T10:48:22;21.80;99.90
10788;DHT22;5446;50.826;4.380;2022-07-05T10:50:59;21.80;99.90
10788;DHT22;5446;50.826;4.380;2022-07-05T11:11:25;22.10;99.90
10788;DHT22;5446;50.826;4.380;2022-07-05T11:13:51;22.00;99.90
10788;DHT22;5446;50.826;4.380;2022-07-05T11:16:39;22.10;99.90
10788;DHT22;5446;50.826;4.380;2022-07-05T11:19:09;22.20;99.90
10788;DHT22;5446;50.826;4.380;2022-07-05T11:21:38;22.30;99.90
10788;DHT22;5446;50.826;4.380;2022-07-05T11:24:24;22.30;99.90
10788;DHT22;5446;50.826;4.380;2022-07-05T11:26:53;22.30;99.90
10788;DHT22;5446;50.826;4.380;2022-07-05T11:29:44;22.40;99.90
10788;DHT22;5446;50.826;4.380;2022-07-05T11:34:51;22.40;99.90
10788;DHT22;5446;50.826;4.380;2022-07-05T11:42:33;22.60;99.90
10788;DHT22;5446;50.826;4.380;2022-07-05T11:45:06;22.60;99.90
10788;DHT22;5446;50.826;4.380;2022-07-05T11:47:34;22.70;99.90
10788;DHT22;5446;50.826;4.380;2022-07-05T11:50:00;22.50;99.90
10788;DHT22;5446;50.826;4.380;2022-07-05T11:52:26;22.40;99.90
10788;DHT22;5446;50.826;4.380;2022-07-05T11:54:52;22.30;99.90
10788;DHT22;5446;50.826;4.380;2022-07-05T11:57:19;22.40;99.90
10788;DHT22;5446;50.826;4.380;2022-07-05T11:59:45;22.30;99.90
10788;DHT22;5446;50.826;4.380;2022-07-05T12:02:11;22.20;99.90
10788;DHT22;5446;50.826;4.380;2022-07-05T12:04:37;22.20;99.90
10788;DHT22;5446;50.826;4.380;2022-07-05T12:07:03;22.30;99.90
10788;DHT22;5446;50.826;4.380;2022-07-05T12:09:32;22.30;99.90
10788;DHT22;5446;50.826;4.380;2022-07-05T12:12:26;22.20;99.90
10788;DHT22;5446;50.826;4.380;2022-07-05T12:15:20;22.20;99.90
10788;DHT22;5446;50.826;4.380;2022-07-05T12:17:50;22.50;99.90
10788;DHT22;5446;50.826;4.380;2022-07-05T12:20:23;22.70;99.90
10788;DHT22;5446;50.826;4.380;2022-07-05T12:22:50;22.80;99.90
10788;DHT22;5446;50.826;4.380;2022-07-05T12:25:18;22.70;99.90
10788;DHT22;5446;50.826;4.380;2022-07-05T12:27:46;22.80;99.90
10788;DHT22;5446;50.826;4.380;2022-07-05T12:30:15;23.00;99.90
10788;DHT22;5446;50.826;4.380;2022-07-05T12:33:06;23.00;99.90
10788;DHT22;5446;50.826;4.380;2022-07-05T12:35:40;23.10;99.90
10788;DHT22;5446;50.826;4.380;2022-07-05T12:38:17;23.20;99.90
10788;DHT22;5446;50.826;4.380;2022-07-05T12:40:48;23.00;99.90
10788;DHT22;5446;50.826;4.380;2022-07-05T12:43:17;22.60;99.90
10788;DHT22;5446;50.826;4.380;2022-07-05T12:45:57;22.60;99.90
10788;DHT22;5446;50.826;4.380;2022-07-05T12:48:31;22.60;99.90
10788;DHT22;5446;50.826;4.380;2022-07-05T12:50:58;22.70;99.90
10788;DHT22;5446;50.826;4.380;2022-07-05T12:53:23;22.60;99.90
10788;DHT22;5446;50.826;4.380;2022-07-05T12:56:10;22.30;99.90
10788;DHT22;5446;50.826;4.380;2022-07-05T12:58:57;22.10;99.90
10788;DHT22;5446;50.826;4.380;2022-07-05T13:01:26;22.40;99.90
10788;DHT22;5446;50.826;4.380;2022-07-05T13:04:18;22.80;99.90
10788;DHT22;5446;50.826;4.380;2022-07-05T13:06:54;22.90;99.90
10788;DHT22;5446;50.826;4.380;2022-07-05T13:09:31;22.40;99.90
10788;DHT22;5446;50.826;4.380;2022-07-05T13:12:13;22.50;99.90
10788;DHT22;5446;50.826;4.380;2022-07-05T13:14:50;22.60;99.90
10788;DHT22;5446;50.826;4.380;2022-07-05T13:17:22;22.70;99.90
10788;DHT22;5446;50.826;4.380;2022-07-05T13:20:07;22.40;99.90
10788;DHT22;5446;50.826;4.380;2022-07-05T13:25:56;22.40;99.90
10788;DHT22;5446;50.826;4.380;2022-07-05T13:28:22;22.30;99.90
10788;DHT22;5446;50.826;4.380;2022-07-05T13:30:47;22.30;99.90
10788;DHT22;5446;50.826;4.380;2022-07-05T13:33:13;22.30;99.90
10788;DHT22;5446;50.826;4.380;2022-07-05T13:35:39;22.10;99.90
10788;DHT22;5446;50.826;4.380;2022-07-05T13:38:04;21.90;99.90
10788;DHT22;5446;50.826;4.380;2022-07-05T13:40:30;22.00;99.90
10788;DHT22;5446;50.826;4.380;2022-07-05T13:42:56;22.00;99.90
10788;DHT22;5446;50.826;4.380;2022-07-05T13:45:21;22.00;99.90
10788;DHT22;5446;50.826;4.380;2022-07-05T13:47:47;21.90;99.90
10788;DHT22;5446;50.826;4.380;2022-07-05T13:50:13;21.70;99.90
10788;DHT22;5446;50.826;4.380;2022-07-05T13:52:57;21.60;99.90
10788;DHT22;5446;50.826;4.380;2022-07-05T13:55:23;21.70;99.90
10788;DHT22;5446;50.826;4.380;2022-07-05T13:57:49;21.70;99.90
10788;DHT22;5446;50.826;4.380;2022-07-05T14:00:15;21.70;99.90
10788;DHT22;5446;50.826;4.380;2022-07-05T14:02:42;21.50;99.90
10788;DHT22;5446;50.826;4.380;2022-07-05T14:05:08;21.40;99.90
10788;DHT22;5446;50.826;4.380;2022-07-05T14:07:33;21.50;99.90
10788;DHT22;5446;50.826;4.380;2022-07-05T14:09:59;21.70;99.90
10788;DHT22;5446;50.826;4.380;2022-07-05T14:12:25;21.70;99.90
10788;DHT22;5446;50.826;4.380;2022-07-05T14:14:50;21.40;99.90
10788;DHT22;5446;50.826;4.380;2022-07-05T14:17:16;21.40;99.90
10788;DHT22;5446;50.826;4.380;2022-07-05T14:19:42;21.30;99.90
10788;DHT22;5446;50.826;4.380;2022-07-05T14:22:08;21.40;99.90
10788;DHT22;5446;50.826;4.380;2022-07-05T14:24:33;21.30;99.90
10788;DHT22;5446;50.826;4.380;2022-07-05T14:26:59;21.30;99.90
10788;DHT22;5446;50.826;4.380;2022-07-05T14:29:25;21.50;99.90
10788;DHT22;5446;50.826;4.380;2022-07-05T14:31:50;21.60;99.90
10788;DHT22;5446;50.826;4.380;2022-07-05T14:34:16;21.60;99.90
10788;DHT22;5446;50.826;4.380;2022-07-05T14:36:41;21.30;99.90
10788;DHT22;5446;50.826;4.380;2022-07-05T14:39:07;21.10;99.90
10788;DHT22;5446;50.826;4.380;2022-07-05T14:41:33;21.30;99.90
10788;DHT22;5446;50.826;4.380;2022-07-05T14:43:58;21.50;99.90
10788;DHT22;5446;50.826;4.380;2022-07-05T14:46:24;21.70;99.90
10788;DHT22;5446;50.826;4.380;2022-07-05T14:48:50;21.80;99.90
10788;DHT22;5446;50.826;4.380;2022-07-05T14:51:15;21.60;99.90
10788;DHT22;5446;50.826;4.380;2022-07-05T14:53:41;21.40;99.90
10788;DHT22;5446;50.826;4.380;2022-07-05T14:56:07;21.30;99.90
10788;DHT22;5446;50.826;4.380;2022-07-05T14:58:33;21.40;99.90
10788;DHT22;5446;50.826;4.380;2022-07-05T15:00:59;21.60;99.90
10788;DHT22;5446;50.826;4.380;2022-07-05T15:03:25;21.50;99.90
10788;DHT22;5446;50.826;4.380;2022-07-05T15:05:53;21.20;99.90
10788;DHT22;5446;50.826;4.380;2022-07-05T15:08:19;21.30;99.90
10788;DHT22;5446;50.826;4.380;2022-07-05T15:10:45;21.30;99.90
10788;DHT22;5446;50.826;4.380;2022-07-05T15:13:11;21.60;99.90
10788;DHT22;5446;50.826;4.380;2022-07-05T15:15:37;21.50;99.90
10788;DHT22;5446;50.826;4.380;2022-07-05T15:18:03;21.40;99.90
10788;DHT22;5446;50.826;4.380;2022-07-05T15:20:29;21.50;99.90
10788;DHT22;5446;50.826;4.380;2022-07-05T15:22:55;21.70;99.90
10788;DHT22;5446;50.826;4.380;2022-07-05T15:25:22;21.80;99.90
10788;DHT22;5446;50.826;4.380;2022-07-05T15:27:48;22.00;99.90
10788;DHT22;5446;50.826;4.380;2022-07-05T15:30:14;22.10;99.90
10788;DHT22;5446;50.826;4.380;2022-07-05T15:32:40;22.10;99.90
10788;DHT22;5446;50.826;4.380;2022-07-05T15:35:06;22.10;99.90
10788;DHT22;5446;50.826;4.380;2022-07-05T15:37:32;22.30;99.90
10788;DHT22;5446;50.826;4.380;2022-07-05T15:39:58;22.40;99.90
10788;DHT22;5446;50.826;4.380;2022-07-05T15:42:25;22.20;99.90
10788;DHT22;5446;50.826;4.380;2022-07-05T15:44:51;21.80;99.90
10788;DHT22;5446;50.826;4.380;2022-07-05T15:47:16;21.80;99.90
10788;DHT22;5446;50.826;4.380;2022-07-05T15:49:42;21.70;99.90
10788;DHT22;5446;50.826;4.380;2022-07-05T15:52:08;22.10;99.90
10788;DHT22;5446;50.826;4.380;2022-07-05T15:54:34;21.70;99.90
10788;DHT22;5446;50.826;4.380;2022-07-05T15:57:00;22.00;99.90
10788;DHT22;5446;50.826;4.380;2022-07-05T15:59:26;22.20;99.90
10788;DHT22;5446;50.826;4.380;2022-07-05T16:01:52;22.70;99.90
10788;DHT22;5446;50.826;4.380;2022-07-05T16:04:18;23.00;99.90
10788;DHT22;5446;50.826;4.380;2022-07-05T16:06:46;22.90;99.90
10788;DHT22;5446;50.826;4.380;2022-07-05T16:09:13;22.60;99.90
10788;DHT22;5446;50.826;4.380;2022-07-05T16:11:39;22.90;99.90
10788;DHT22;5446;50.826;4.380;2022-07-05T16:14:04;22.80;99.90
10788;DHT22;5446;50.826;4.380;2022-07-05T16:16:32;23.00;99.90
10788;DHT22;5446;50.826;4.380;2022-07-05T16:18:57;22.90;99.90
10788;DHT22;5446;50.826;4.380;2022-07-05T16:21:24;23.50;99.90
10788;DHT22;5446;50.826;4.380;2022-07-05T16:23:50;23.40;99.90
10788;DHT22;5446;50.826;4.380;2022-07-05T16:26:20;23.70;99.90
10788;DHT22;5446;50.826;4.380;2022-07-05T16:28:46;23.90;99.90